createdAt,value
2023-04-23T00:02:54.479Z,100636.69
2023-04-23T00:08:18.767Z,100635.25
2023-04-23T00:13:41.228Z,100629.97
2023-04-23T00:19:03.133Z,100626.63
2023-04-23T00:24:24.924Z,100620.50
2023-04-23T00:29:46.907Z,100622.69
2023-04-23T00:35:09.140Z,100605.44
2023-04-23T00:40:31.024Z,100609.31
2023-04-23T00:45:52.960Z,100603.19
2023-04-23T00:51:17.772Z,100594.88
2023-04-23T00:56:39.750Z,100587.91
2023-04-23T01:02:01.822Z,100589.00
2023-04-23T01:07:24.047Z,100585.66
2023-04-23T01:12:46.734Z,100587.56
2023-04-23T01:18:08.733Z,100593.38
2023-04-23T01:23:31.325Z,100590.03
2023-04-23T01:28:53.504Z,100593.06
2023-04-23T01:34:15.760Z,100584.75
2023-04-23T01:39:37.862Z,100589.72
2023-04-23T01:44:59.838Z,100593.56
2023-04-23T01:50:24.689Z,100590.22
2023-04-23T01:55:48.324Z,100592.97
2023-04-23T02:01:10.198Z,100591.56
2023-04-23T02:06:32.780Z,100583.53
2023-04-23T02:11:54.602Z,100585.44
2023-04-23T02:17:16.526Z,100580.41
2023-04-23T02:22:41.230Z,100574.88
2023-04-23T02:28:06.540Z,100576.22
2023-04-23T02:33:28.326Z,100580.09
2023-04-23T02:38:51.429Z,100569.00
2023-04-23T02:44:13.243Z,100571.19
2023-04-23T02:49:35.121Z,100571.44
2023-04-23T02:54:57.027Z,100568.94
2023-04-23T03:00:19.192Z,100564.50
2023-04-23T03:05:41.228Z,100564.72
2023-04-23T03:11:03.162Z,100565.00
2023-04-23T03:16:25.213Z,100560.56
2023-04-23T03:21:47.062Z,100562.72
2023-04-23T03:27:09.011Z,100568.28
2023-04-23T03:32:30.872Z,100558.28
2023-04-23T03:37:53.017Z,100555.50
2023-04-23T03:43:14.820Z,100567.69
2023-04-23T03:48:36.629Z,100562.41
2023-04-23T03:53:58.419Z,100567.13
2023-04-23T03:59:20.491Z,100576.53
2023-04-23T04:04:43.673Z,100569.56
2023-04-23T04:10:07.194Z,100562.09
2023-04-23T04:15:29.098Z,100564.28
2023-04-23T04:20:52.140Z,100549.84
2023-04-23T04:26:15.632Z,100555.38
2023-04-23T04:31:37.969Z,100562.00
2023-04-23T04:36:59.885Z,100563.97
2023-04-23T04:42:21.707Z,100575.84
2023-04-23T04:47:43.519Z,100568.06
2023-04-23T04:53:05.330Z,100563.63
2023-04-23T04:58:27.304Z,100563.88
2023-04-23T05:03:49.516Z,100572.19
2023-04-23T05:09:12.062Z,100567.72
2023-04-23T05:14:34.364Z,100569.69
2023-04-23T05:19:56.281Z,100574.38
2023-04-23T05:25:18.131Z,100571.84
2023-04-23T05:30:40.138Z,100572.69
2023-04-23T05:36:01.946Z,100568.50
2023-04-23T05:41:23.772Z,100567.41
2023-04-23T05:46:45.717Z,100561.94
2023-04-23T05:52:07.678Z,100563.06
2023-04-23T05:57:29.473Z,100558.75
2023-04-23T06:02:51.490Z,100548.78
2023-04-23T06:08:13.447Z,100547.28
2023-04-23T06:13:42.899Z,100552.66
2023-04-23T06:19:05.535Z,100542.50
2023-04-23T06:24:27.415Z,100536.22
2023-04-23T06:29:49.245Z,100538.78
2023-04-23T06:35:11.048Z,100539.91
2023-04-23T06:40:33.798Z,100544.41
2023-04-23T06:45:55.573Z,100532.53
2023-04-23T06:51:17.626Z,100517.84
2023-04-23T06:56:39.598Z,100522.34
2023-04-23T07:02:01.390Z,100510.97
2023-04-23T07:07:23.334Z,100504.88
2023-04-23T07:12:45.402Z,100513.78
2023-04-23T07:18:07.465Z,100516.00
2023-04-23T07:23:29.296Z,100513.56
2023-04-23T07:28:52.812Z,100517.47
2023-04-23T07:34:15.056Z,100506.63
2023-04-23T07:39:36.985Z,100496.69
2023-04-23T07:44:58.824Z,100498.34
2023-04-23T07:50:20.949Z,100489.72
2023-04-23T07:55:42.690Z,100479.47
2023-04-23T08:01:04.546Z,100477.28
2023-04-23T08:06:27.484Z,100484.50
2023-04-23T08:11:49.491Z,100480.63
2023-04-23T08:17:11.285Z,100487.81
2023-04-23T08:22:33.102Z,100485.59
2023-04-23T08:27:55.023Z,100474.69
2023-04-23T08:33:17.145Z,100471.03
2023-04-23T08:38:38.929Z,100481.28
2023-04-23T08:44:15.449Z,100474.34
2023-04-23T08:49:41.893Z,100471.84
2023-04-23T08:55:07.714Z,100472.16
2023-04-23T09:00:29.834Z,100468.78
2023-04-23T09:05:53.485Z,100458.25
2023-04-23T09:11:16.768Z,100461.56
2023-04-23T09:16:41.196Z,100462.38
2023-04-23T09:22:03.050Z,100447.63
2023-04-23T09:27:26.627Z,100449.00
2023-04-23T09:32:49.837Z,100434.81
2023-04-23T09:38:12.327Z,100439.19
2023-04-23T09:43:34.114Z,100440.31
2023-04-23T09:48:57.596Z,100430.56
2023-04-23T09:54:22.917Z,100426.41
2023-04-23T09:59:47.756Z,100428.59
2023-04-23T10:05:24.331Z,100424.16
2023-04-23T10:11:00.024Z,100416.88
2023-04-23T10:16:35.812Z,100408.00
2023-04-23T10:22:18.498Z,100407.69
2023-04-23T10:27:53.893Z,100406.84
2023-04-23T10:33:28.870Z,100395.75
2023-04-23T10:38:57.906Z,100391.03
2023-04-23T10:44:44.947Z,100379.09
2023-04-23T10:50:28.508Z,100361.59
2023-04-23T10:55:50.643Z,100344.66
2023-04-23T11:01:13.084Z,100340.47
2023-04-23T11:06:49.877Z,100341.31
2023-04-23T11:12:32.257Z,100322.69
2023-04-23T11:17:54.168Z,100320.72
2023-04-23T11:23:30.009Z,100315.69
2023-04-23T11:28:54.016Z,100299.59
2023-04-23T11:34:17.397Z,100292.38
2023-04-23T11:39:41.547Z,100285.16
2023-04-23T11:45:03.984Z,100268.53
2023-04-23T11:50:28.040Z,100272.13
2023-04-23T11:55:49.830Z,100267.41
2023-04-23T12:01:12.944Z,100252.16
2023-04-23T12:06:34.746Z,100246.91
2023-04-23T12:11:58.734Z,100235.28
2023-04-23T12:17:20.664Z,100237.78
2023-04-23T12:22:42.510Z,100221.41
2023-04-23T12:28:07.652Z,100216.41
2023-04-23T12:33:30.801Z,100201.97
2023-04-23T12:38:52.675Z,100206.72
2023-04-23T12:44:15.486Z,100200.84
2023-04-23T12:49:40.371Z,100202.22
2023-04-23T12:55:05.293Z,100201.09
2023-04-23T13:00:27.496Z,100219.13
2023-04-23T13:05:49.401Z,100235.19
2023-04-23T13:11:11.502Z,100236.56
2023-04-23T13:16:33.585Z,100227.97
2023-04-23T13:21:55.342Z,100237.38
2023-04-23T13:27:17.358Z,100224.03
2023-04-23T13:32:39.161Z,100211.28
2023-04-23T13:38:00.972Z,100197.94
2023-04-23T13:43:22.824Z,100183.53
2023-04-23T13:48:44.624Z,100169.09
2023-04-23T13:54:06.980Z,100158.81
2023-04-23T13:59:28.841Z,100154.13
2023-04-23T14:04:50.908Z,100131.94
2023-04-23T14:10:12.856Z,100137.47
2023-04-23T14:15:35.751Z,100138.00
2023-04-23T14:20:57.724Z,100123.56
2023-04-23T14:32:03.496Z,100098.34
2023-04-23T14:37:25.530Z,100081.09
2023-04-23T14:42:48.145Z,100072.22
2023-04-23T14:48:10.442Z,100050.31
2023-04-23T14:53:32.267Z,100044.78
2023-04-23T14:58:54.137Z,100022.59
2023-04-23T15:04:16.975Z,100020.06
2023-04-23T15:09:38.840Z,100004.00
2023-04-23T15:15:07.354Z,99997.09
2023-04-23T15:20:29.159Z,99989.88
2023-04-23T15:25:51.590Z,99974.91
2023-04-23T15:31:13.628Z,99956.31
2023-04-23T15:36:38.409Z,99943.31
2023-04-23T15:42:00.420Z,99919.47
2023-04-23T15:47:23.641Z,99915.59
2023-04-23T15:52:45.527Z,99913.91
2023-04-23T15:58:07.915Z,99898.94
2023-04-23T16:03:30.156Z,99893.41
2023-04-23T16:08:52.008Z,99883.13
2023-04-23T16:14:13.774Z,99870.38
2023-04-23T16:19:35.679Z,99858.47
2023-04-23T16:24:57.522Z,99849.31
2023-04-23T16:30:19.362Z,99827.41
2023-04-23T16:35:41.171Z,99813.81
2023-04-23T16:41:03.099Z,99799.94
2023-04-23T16:46:26.519Z,99789.13
2023-04-23T16:51:48.324Z,99769.19
2023-04-23T16:57:10.242Z,99771.13
2023-04-23T17:02:32.856Z,99749.22
2023-04-23T17:07:54.857Z,99730.91
2023-04-23T17:13:16.684Z,99726.78
2023-04-23T17:18:38.440Z,99713.19
2023-04-23T17:24:00.453Z,99713.19
2023-04-23T17:29:22.285Z,99698.22
2023-04-23T17:34:44.594Z,99717.63
2023-04-23T17:40:08.414Z,99705.44
2023-04-23T17:45:30.346Z,99704.59
2023-04-23T17:50:53.554Z,99694.34
2023-04-23T17:56:16.128Z,99688.81
2023-04-23T18:01:38.671Z,99706.53
2023-04-23T18:07:00.531Z,99701.00
2023-04-23T18:12:22.323Z,99702.13
2023-04-23T18:17:45.028Z,99679.38
2023-04-23T18:23:07.144Z,99682.69
2023-04-23T18:28:33.138Z,99668.16
2023-04-23T18:33:59.698Z,99648.53
2023-04-23T18:39:21.503Z,99657.78
2023-04-23T18:44:43.504Z,99650.97
2023-04-23T18:50:37.428Z,99643.13
2023-04-23T18:55:59.289Z,99648.06
2023-04-23T19:01:21.498Z,99640.72
2023-04-23T19:06:43.300Z,99652.56
2023-04-23T19:12:05.637Z,99686.88
2023-04-23T19:17:27.632Z,99719.91
2023-04-23T19:22:49.446Z,99757.72
2023-04-23T19:28:11.330Z,99787.19
2023-04-23T19:33:33.098Z,99801.66
2023-04-23T19:38:54.961Z,99825.09
2023-04-23T19:44:16.783Z,99836.84
2023-04-23T19:49:38.583Z,99848.31
2023-04-23T19:55:00.500Z,99857.53
2023-04-23T20:00:23.926Z,99872.84
2023-04-23T20:05:46.568Z,99875.69
2023-04-23T20:11:10.786Z,99888.50
2023-04-23T20:16:32.873Z,99897.72
2023-04-23T20:21:54.825Z,99897.19
2023-04-23T20:27:16.940Z,99912.19
2023-04-23T20:32:38.747Z,99911.09
2023-04-23T20:38:01.097Z,99923.34
2023-04-23T20:43:23.200Z,99928.63
2023-04-23T20:48:44.973Z,99938.06
2023-04-23T20:54:06.925Z,99950.03
2023-04-23T20:59:29.005Z,99949.50
2023-04-23T21:04:50.892Z,99953.34
2023-04-23T21:10:12.789Z,99963.34
2023-04-23T21:15:35.954Z,99954.19
2023-04-23T21:20:57.878Z,99958.66
2023-04-23T21:26:19.701Z,99972.25
2023-04-23T21:31:48.610Z,99976.69
2023-04-23T21:37:10.959Z,99972.78
2023-04-23T21:42:32.763Z,99971.69
2023-04-23T21:47:57.151Z,99962.25
2023-04-23T21:53:18.907Z,99978.34
2023-04-23T21:58:40.813Z,99972.75
2023-04-23T22:04:03.549Z,99972.22
2023-04-23T22:09:25.725Z,99981.09
2023-04-23T22:14:48.095Z,99980.53
2023-04-23T22:20:12.599Z,99976.38
2023-04-23T22:25:34.393Z,99984.44
2023-04-23T22:30:56.353Z,99983.88
2023-04-23T22:36:18.676Z,99985.22
2023-04-23T22:41:40.594Z,99981.06
2023-04-23T22:47:02.388Z,99986.06
2023-04-23T22:52:24.211Z,99989.41
2023-04-23T22:57:46.414Z,99998.25
2023-04-23T23:03:08.704Z,100001.28
2023-04-23T23:08:30.932Z,99989.91
2023-04-23T23:13:53.136Z,99997.66
2023-04-23T23:19:14.959Z,100001.53
2023-04-23T23:24:36.878Z,100009.28
2023-04-23T23:29:58.743Z,100007.06
2023-04-23T23:35:20.671Z,99995.41
2023-04-23T23:40:42.880Z,100007.88
2023-04-23T23:46:04.804Z,100004.25
2023-04-23T23:51:28.444Z,100012.03
2023-04-23T23:56:50.259Z,100010.38
